createdAt,value
2018-09-15T00:03:41.691Z,46.00
2018-09-15T00:08:45.163Z,46.00
2018-09-15T00:13:48.620Z,46.00
2018-09-15T00:18:51.997Z,46.10
2018-09-15T00:23:55.552Z,46.10
2018-09-15T00:28:58.946Z,45.90
2018-09-15T00:34:02.399Z,46.10
2018-09-15T00:39:08.486Z,46.50
2018-09-15T00:44:11.924Z,45.90
2018-09-15T00:49:15.614Z,45.90
2018-09-15T00:54:19.191Z,45.90
2018-09-15T00:59:22.690Z,46.00
2018-09-15T01:04:25.884Z,46.00
2018-09-15T01:09:29.104Z,46.00
2018-09-15T01:14:32.406Z,46.20
2018-09-15T01:19:36.051Z,46.20
2018-09-15T01:24:39.306Z,45.90
2018-09-15T01:29:42.452Z,45.90
2018-09-15T01:34:45.683Z,46.00
2018-09-15T01:39:49.138Z,46.00
2018-09-15T01:44:52.443Z,46.00
2018-09-15T01:49:55.688Z,45.90
2018-09-15T01:54:58.965Z,46.30
2018-09-15T02:00:02.380Z,46.30
2018-09-15T02:05:05.869Z,46.00
2018-09-15T02:10:09.580Z,45.90
2018-09-15T02:15:12.819Z,46.00
2018-09-15T02:20:16.647Z,46.00
2018-09-15T02:25:19.948Z,46.00
2018-09-15T02:30:23.208Z,46.00
2018-09-15T02:35:26.429Z,46.30
2018-09-15T02:40:29.577Z,46.30
2018-09-15T02:45:32.734Z,46.00
2018-09-15T02:50:35.877Z,46.10
2018-09-15T02:55:39.036Z,46.00
2018-09-15T03:00:42.328Z,46.20
2018-09-15T03:05:45.530Z,46.10
2018-09-15T03:10:48.744Z,46.20
2018-09-15T03:15:51.942Z,46.30
2018-09-15T03:20:55.390Z,46.30
2018-09-15T03:25:58.599Z,46.20
2018-09-15T03:31:02.001Z,46.20
2018-09-15T03:36:05.258Z,46.30
2018-09-15T03:41:08.449Z,46.30
2018-09-15T03:46:11.714Z,46.00
2018-09-15T03:51:14.975Z,46.20
2018-09-15T03:56:18.251Z,46.00
2018-09-15T04:01:21.506Z,46.20
2018-09-15T04:06:25.419Z,46.10
2018-09-15T04:11:28.635Z,46.20
2018-09-15T04:16:31.911Z,46.00
2018-09-15T04:21:35.152Z,46.30
2018-09-15T04:26:38.580Z,46.10
2018-09-15T04:31:42.236Z,46.00
2018-09-15T04:36:45.545Z,46.00
2018-09-15T04:41:48.782Z,46.10
2018-09-15T04:46:51.996Z,46.00
2018-09-15T04:51:55.206Z,46.20
2018-09-15T04:56:58.657Z,46.30
2018-09-15T05:02:01.922Z,46.30
2018-09-15T05:07:05.274Z,46.40
2018-09-15T05:12:08.490Z,46.30
2018-09-15T05:17:11.730Z,46.20
2018-09-15T05:22:14.938Z,46.40
2018-09-15T05:27:18.721Z,46.40
2018-09-15T05:32:22.303Z,46.50
2018-09-15T05:37:25.728Z,46.40
2018-09-15T05:42:29.237Z,46.20
2018-09-15T05:47:32.725Z,46.30
2018-09-15T05:52:36.036Z,46.20
2018-09-15T05:57:39.280Z,46.40
2018-09-15T06:02:42.664Z,46.20
2018-09-15T06:07:46.506Z,46.20
2018-09-15T06:12:50.286Z,46.30
2018-09-15T06:17:53.596Z,46.40
2018-09-15T06:22:57.181Z,46.50
2018-09-15T06:28:00.756Z,46.30
2018-09-15T06:33:04.062Z,46.30
2018-09-15T06:38:07.682Z,46.40
2018-09-15T06:43:10.936Z,46.30
2018-09-15T06:48:14.581Z,46.20
2018-09-15T06:53:17.885Z,46.10
2018-09-15T06:58:24.539Z,46.10
2018-09-15T07:03:29.227Z,46.10
2018-09-15T07:08:32.777Z,46.10
2018-09-15T07:13:36.050Z,46.10
2018-09-15T07:18:39.447Z,46.00
2018-09-15T07:23:42.677Z,46.00
2018-09-15T07:28:45.977Z,45.70
2018-09-15T07:33:49.297Z,45.60
2018-09-15T07:38:52.694Z,45.70
2018-09-15T07:43:56.415Z,46.00
2018-09-15T07:48:59.903Z,45.80
2018-09-15T07:54:03.454Z,45.80
2018-09-15T07:59:06.820Z,45.80
2018-09-15T08:04:10.315Z,45.90
2018-09-15T08:09:13.687Z,45.50
2018-09-15T08:14:17.362Z,45.40
2018-09-15T08:19:21.417Z,45.30
2018-09-15T08:24:25.289Z,45.70
2018-09-15T08:29:28.711Z,45.20
2018-09-15T08:34:32.616Z,45.10
2018-09-15T08:39:37.175Z,45.00
2018-09-15T08:44:41.153Z,44.90
2018-09-15T08:49:45.284Z,44.70
2018-09-15T08:54:48.777Z,44.70
2018-09-15T08:59:52.315Z,44.60
2018-09-15T09:04:55.758Z,44.50
2018-09-15T09:09:59.194Z,44.40
2018-09-15T09:15:02.580Z,44.30
2018-09-15T09:20:06.189Z,44.30
2018-09-15T09:25:09.996Z,44.40
2018-09-15T09:30:13.624Z,44.50
2018-09-15T09:35:17.050Z,44.50
2018-09-15T09:40:20.975Z,44.50
2018-09-15T09:45:24.229Z,44.50
2018-09-15T09:50:27.677Z,44.60
2018-09-15T09:55:31.623Z,44.60
2018-09-15T10:00:40.340Z,44.70
2018-09-15T10:05:43.595Z,44.70
2018-09-15T10:10:48.280Z,44.80
2018-09-15T10:15:52.130Z,44.70
2018-09-15T10:20:56.088Z,44.60
2018-09-15T10:25:59.368Z,44.60
2018-09-15T10:31:03.123Z,44.60
2018-09-15T10:36:06.498Z,44.60
2018-09-15T10:41:10.022Z,44.50
2018-09-15T10:46:13.698Z,44.50
2018-09-15T10:51:16.955Z,44.70
2018-09-15T10:56:20.282Z,44.40
2018-09-15T11:01:23.881Z,44.50
2018-09-15T11:06:27.385Z,44.80
2018-09-15T11:11:30.665Z,44.90
2018-09-15T11:16:34.143Z,44.90
2018-09-15T11:21:37.470Z,44.90
2018-09-15T11:26:40.780Z,44.90
2018-09-15T11:31:43.975Z,44.80
2018-09-15T11:36:47.272Z,44.40
2018-09-15T11:41:50.632Z,44.30
2018-09-15T11:46:54.016Z,44.70
2018-09-15T11:51:57.382Z,44.70
2018-09-15T11:57:01.842Z,44.70
2018-09-15T12:02:05.219Z,44.80
2018-09-15T12:07:08.684Z,44.70
2018-09-15T12:12:12.170Z,44.70
2018-09-15T12:17:15.406Z,44.70
2018-09-15T12:22:18.919Z,44.50
2018-09-15T12:27:22.122Z,44.40
2018-09-15T12:32:25.478Z,44.40
2018-09-15T12:37:28.977Z,44.60
2018-09-15T12:42:32.550Z,44.30
2018-09-15T12:47:35.827Z,44.30
2018-09-15T12:52:39.037Z,44.50
2018-09-15T12:57:42.238Z,44.60
2018-09-15T13:02:45.565Z,44.60
2018-09-15T13:07:48.977Z,44.60
2018-09-15T13:12:52.289Z,44.70
2018-09-15T13:17:55.606Z,44.70
2018-09-15T13:22:58.827Z,44.40
2018-09-15T13:28:02.242Z,44.30
2018-09-15T13:33:05.596Z,44.30
2018-09-15T13:38:08.885Z,44.40
2018-09-15T13:43:12.156Z,44.30
2018-09-15T13:48:15.408Z,44.20
2018-09-15T13:53:19.077Z,44.30
2018-09-15T13:58:22.410Z,44.40
2018-09-15T14:03:25.684Z,44.40
2018-09-15T14:08:28.922Z,44.40
2018-09-15T14:13:32.702Z,44.30
2018-09-15T14:18:35.978Z,44.30
2018-09-15T14:23:39.480Z,44.20
2018-09-15T14:28:43.044Z,44.10
2018-09-15T14:33:46.336Z,44.20
2018-09-15T14:38:56.115Z,44.00
2018-09-15T14:43:59.328Z,44.00
2018-09-15T14:49:02.698Z,43.90
2018-09-15T14:54:06.124Z,44.10
2018-09-15T14:59:10.211Z,44.20
2018-09-15T15:04:13.636Z,44.10
2018-09-15T15:09:16.894Z,44.10
2018-09-15T15:14:20.310Z,44.20
2018-09-15T15:19:24.218Z,44.20
2018-09-15T15:24:27.424Z,44.30
2018-09-15T15:29:30.976Z,44.30
2018-09-15T15:34:34.280Z,44.30
2018-09-15T15:39:37.699Z,44.40
2018-09-15T15:44:41.028Z,44.40
2018-09-15T15:49:44.649Z,44.40
2018-09-15T15:54:48.215Z,44.40
2018-09-15T15:59:51.782Z,44.50
2018-09-15T16:04:55.579Z,44.60
2018-09-15T16:09:59.334Z,44.60
2018-09-15T16:15:02.650Z,44.50
2018-09-15T16:20:05.974Z,44.50
2018-09-15T16:25:09.318Z,44.60
2018-09-15T16:30:12.600Z,44.50
2018-09-15T16:35:16.248Z,44.60
2018-09-15T16:40:19.574Z,44.60
2018-09-15T16:45:23.612Z,44.60
2018-09-15T16:50:26.850Z,44.60
2018-09-15T16:55:32.065Z,44.60
2018-09-15T17:00:35.314Z,44.60
2018-09-15T17:05:38.614Z,44.50
2018-09-15T17:10:42.284Z,44.60
2018-09-15T17:15:45.592Z,44.50
2018-09-15T17:20:48.910Z,44.60
2018-09-15T17:25:52.332Z,44.50
2018-09-15T17:30:56.620Z,44.50
2018-09-15T17:36:00.725Z,44.60
2018-09-15T17:41:06.582Z,45.20
2018-09-15T17:46:10.717Z,44.60
2018-09-15T17:51:13.965Z,44.60
2018-09-15T17:56:17.267Z,44.60
2018-09-15T18:01:20.971Z,44.60
2018-09-15T18:06:24.329Z,44.60
2018-09-15T18:11:27.911Z,44.60
2018-09-15T18:16:31.410Z,44.70
2018-09-15T18:21:36.391Z,44.70
2018-09-15T18:26:40.218Z,44.80
2018-09-15T18:31:44.007Z,44.80
2018-09-15T18:36:47.941Z,44.80
2018-09-15T18:41:51.820Z,44.80
2018-09-15T18:46:55.683Z,44.90
2018-09-15T18:51:59.950Z,44.90
2018-09-15T18:57:03.545Z,44.80
2018-09-15T19:02:07.108Z,44.90
2018-09-15T19:07:10.982Z,44.90
2018-09-15T19:12:15.501Z,44.90
2018-09-15T19:17:20.521Z,44.80
2018-09-15T19:22:24.163Z,44.80
2018-09-15T19:27:28.084Z,44.80
2018-09-15T19:32:31.549Z,44.90
2018-09-15T19:37:35.118Z,44.90
2018-09-15T19:42:39.398Z,45.60
2018-09-15T19:47:43.180Z,45.10
2018-09-15T19:52:47.026Z,45.10
2018-09-15T19:57:50.518Z,45.10
2018-09-15T20:02:54.494Z,45.20
2018-09-15T20:08:01.147Z,45.20
2018-09-15T20:13:04.624Z,45.30
2018-09-15T20:18:07.527Z,45.20
2018-09-15T20:23:11.022Z,45.60
2018-09-15T20:28:16.411Z,45.90
2018-09-15T20:33:20.085Z,46.00
2018-09-15T20:38:23.535Z,45.90
2018-09-15T20:43:27.037Z,46.00
2018-09-15T20:48:30.582Z,46.00
2018-09-15T20:53:34.425Z,46.00
2018-09-15T20:58:38.429Z,46.00
2018-09-15T21:03:49.313Z,46.20
2018-09-15T21:08:52.734Z,46.10
2018-09-15T21:13:57.734Z,46.10
2018-09-15T21:19:01.041Z,46.10
2018-09-15T21:24:04.955Z,46.30
2018-09-15T21:29:08.902Z,46.20
2018-09-15T21:34:12.784Z,46.00
2018-09-15T21:39:28.397Z,46.20
2018-09-15T21:44:35.009Z,46.10
2018-09-15T21:49:40.202Z,46.10
2018-09-15T21:54:43.520Z,46.10
2018-09-15T21:59:46.850Z,46.00
2018-09-15T22:04:50.931Z,46.00
2018-09-15T22:09:55.231Z,46.00
2018-09-15T22:14:59.308Z,46.00
2018-09-15T22:20:04.172Z,46.10
2018-09-15T22:25:09.368Z,46.10
2018-09-15T22:30:13.302Z,45.90
2018-09-15T22:35:18.741Z,45.80
2018-09-15T22:40:24.403Z,45.80
2018-09-15T22:45:28.518Z,45.70
2018-09-15T22:50:31.788Z,45.80
2018-09-15T22:55:35.565Z,45.80
2018-09-15T23:00:39.401Z,45.70
2018-09-15T23:05:44.280Z,45.80
2018-09-15T23:10:47.899Z,45.80
2018-09-15T23:15:51.360Z,45.80
2018-09-15T23:20:54.594Z,45.90
2018-09-15T23:25:57.960Z,46.00
2018-09-15T23:31:01.164Z,45.90
2018-09-15T23:36:04.792Z,46.00
2018-09-15T23:41:08.606Z,45.80
2018-09-15T23:46:12.508Z,45.90
2018-09-15T23:51:15.711Z,46.20
2018-09-15T23:56:18.916Z,46.20
